Airfield :
LOGIN :

Register | Disclaimer

   EN    FR    IT 

 










Legend :    VFR   Marginal VFR   IFR   Intensive IFR   Very Intensive IFR
Visi :
Ceiling :
>= 8 km
>= 3000ft
5 to 8 km
1000 to 3000 ft
1500m to 5 km
500 to 1000 ft
800 to 1500m
200 to 500 ft
< 800m
< 200 ft
Symbols :   Thunderstorms  Fog  Heavy snow  Heavy precipitations  Wind > 20 kt
SIGMETs :     Misc.  Thunderstorms  Icing  Turbulence  Mountain Waves  Volcanic Ashes






- Airport Elevation : 598 ft
- IATA code : BQH


EGKB - Biggin Hill

CURRENT METAR :
  • 250850Z 25005KT 210V290 9999 -RA BKN006 15/14 Q1017

EXPIRED METARs :
  • 250820Z 23006KT 200V270 9999 -RA BKN007 14/13 Q1017
  • 250750Z 23006KT 9999 -RA BKN006 14/13 Q1017
  • 250720Z 23005KT 210V270 9999 -RA BKN007 14/13 Q1017
  • 250650Z 23006KT 190V250 9999 -RA BKN008 14/12 Q1017

TAF TAF EGKB
Valid from the 25 at 09:00 until the 25 at 18:00 UTC


250800Z 2509/2518 23006KT 8000 -RA BKN006
BECMG 2509/2511 9999 NSW SCT025
PROB30
TEMPO 2511/2513 7000 SHRA BKN012
TEMPO 2513/2518 7000 SHRA BKN012
PROB30
TEMPO 2513/2518 4000 +SHRA



MET'MAP, your aeronautical weather chart ! - Copyright ORBIFLY December 2007 - Disclaimer

ORBIFLY MET'MAP TEAM :

Programming & Development : Alexandra Zaïnal
Concept & original design : Baudouin d'Aumeries
Assistance for programming : Marc-Olivier Méhu
Technical & hardware support : Manuel Goepfert

Contact : metmap@orbifly.com




SOURCES & CREDITS :

   NOAA